x

South Huron - 43nm East Of Oscoda, Mi (45008) Wave Buoy

6:50pm - Mon 20th Oct 2014 All times are CDT. -5 hours from GMT.

  • Sig Wave height 1.3ft
  • Swell Direction
  • Peak Period 4s
  • Average Period 3s
  • Wind
    18mph, 20mph gusts
  • Sea Temp 52°f
  • Air Temp 50°f
  • Sea Pressure 1009.2mb
  • South Huron - 43nm East Of Oscoda, Mi
  • South Huron - 43nm East Of Oscoda, Mi

More Historic Weather Station data

Upgrade to MSW Pro to gain access to the past 30 days of data for over 8000 Wavebouys and Weather Stations around the globe.

Join Pro

Comparision Forecast

View Surf forecast
   
Mon 10/20 6:50pm 1.3ft 4s 3s 18 20 mph 1009.2mb 52f 50f
5:50pm 1.6ft 5s 4s 9
mph
1008.7mb 52f 51f
4:50pm 2ft 4s 4s 9
mph
1008.1mb 52f 51f
3:50pm 2.5ft 4s 4s 11 13 mph 1007.7mb 52f 51f
2:50pm 2.5ft 5s 4s 11 13 mph 1007.4mb 52f 50f
1:50pm 2.5ft 5s 4s 13 16 mph 1007.2mb 52f 51f
12:50pm 3ft 5s 4s 13 16 mph 1007.2mb 52f 50f
11:50am 3.5ft 5s 4s 13 18 mph 1007.9mb 52f 50f
10:50am 3.5ft 4s 4s 16 20 mph 1008mb 52f 50f
9:50am 3.5ft 5s 4s 16 20 mph 1008.2mb 52f 50f
8:50am 3.5ft 5s 4s 18 20 mph 1008.2mb 52f 50f
7:50am 3.5ft 5s 4s 20 22 mph 1008.2mb 52f 49f
6:50am 4ft 5s 4s 18 20 mph 1008.2mb 52f 49f
5:50am 3.5ft 5s 4s 20 22 mph 1008.6mb 52f 49f
4:50am 3ft 5s 4s 22 27 mph 1008.9mb 52f 48f
3:50am 3ft 4s 4s 20 22 mph 1009mb 52f 49f
2:50am 2.5ft 4s 4s 18 22 mph 1009.7mb 52f 49f
1:50am 2.5ft 5s 4s 16 18 mph 1010.7mb 52f 49f
12:50am 2.5ft 4s 4s 18 20 mph 1011.6mb 52f 49f
Sun 10/19 9:50pm 2.5ft 4s 3s 18 22 mph 1013.2mb 52f 50f
8:50pm 2ft 3s 3s 18 22 mph 1013.3mb 52f 50f
7:50pm 1.6ft 4s 3s 18 20 mph 1014.1mb 52f 49f
6:50pm 1.3ft 4s 3s 16 18 mph 1014.9mb 52f 48f
4:50pm 1.3ft 4s 3s 9 11 mph 1016.4mb 52f 45f
3:50pm 1.3ft 3s 3s 11
mph
1017mb 52f 44f
2:50pm 1.3ft 3s 3s 11 13 mph 1017.7mb 51f 43f
1:50pm 1.3ft 3s 3s 9 13 mph 1018.8mb 51f 41f
12:50pm 1.3ft 4s 3s 13 16 mph 1019.3mb 51f 41f
11:50am 1.3ft 4s 3s 11 16 mph 1020.1mb 51f 40f
10:50am 1.6ft 4s 3s 11 16 mph 1020.5mb 51f 40f
9:50am 1.6ft 4s 4s 11 13 mph 1020.7mb 51f 41f
8:50am 1.6ft 4s 4s 11 13 mph 1020.5mb 51f 41f
7:50am 2ft 5s 4s 11 13 mph 1020.4mb 51f 42f
6:50am 2ft 5s 4s 9 13 mph 1020mb 51f 42f
5:50am 2.5ft 5s 4s 11 16 mph 1019.9mb 51f 42f
4:50am 2.5ft 5s 4s 13 18 mph 1019.5mb 51f 41f
3:50am 3.5ft 6s 4s 13 18 mph 1019.4mb 51f 41f
2:50am 3.5ft 6s 4s 18 22 mph 1019mb 51f 41f
1:50am 3.5ft 5s 4s 16 20 mph 1018.9mb 51f 41f
12:50am 4ft 5s 4s 18 20 mph 1018.3mb 51f 42f
Sat 10/18 11:50pm 4.5ft 6s 5s 16 20 mph 1018mb 51f 43f
10:50pm 5ft 6s 5s 20 25 mph 1017.8mb 51f 44f
9:50pm 5ft 6s 5s 22 27 mph 1017.3mb 51f 45f
8:50pm 6ft 6s 5s 22 29 mph 1017.1mb 51f 45f
7:50pm 6ft 7s 5s 25 29 mph 1016.5mb 51f 45f
6:50pm 6ft 7s 5s 22 29 mph 1016.1mb 51f 45f
5:50pm 6.5ft 7s 5s 25 31 mph 1015.3mb 51f 45f
4:50pm 6.5ft 7s 5s 25 29 mph 1014.5mb 51f 44f
3:50pm 7ft 7s 5s 27 31 mph 1013.7mb 51f 44f
2:50pm 7ft 7s 5s 25 34 mph 1013.3mb 51f 44f
1:50pm 8ft 7s 6s 27 34 mph 1012.4mb 51f 44f
12:50pm 7ft 7s 5s 25 34 mph 1012mb 51f 45f
11:50am 8ft 7s 6s 27 31 mph 1011.5mb 51f 44f
10:50am 8.5ft 8s 6s 27 31 mph 1010.6mb 52f 44f
9:50am 8.5ft 7s 6s 29 34 mph 1009.5mb 52f 44f
8:50am 8ft 7s 6s 29 36 mph 1008mb 52f 44f
7:50am 7.5ft 8s 6s 29 36 mph 1006.7mb 52f 45f
6:50am 8ft 8s 6s 29 38 mph 1005.4mb 52f 45f
5:50am 7ft 7s 5s 31 38 mph 1004.2mb 52f 45f
4:50am 7ft 7s 5s 29 34 mph 1003.3mb 52f 46f
3:50am 6.5ft 6s 5s 27 36 mph 1002.2mb 52f 46f
2:50am 6.5ft 7s 5s 27 36 mph 1001.3mb 52f 46f
1:50am 7ft 6s 5s 27 31 mph 1000.8mb 52f 47f
12:50am 6ft 6s 5s 27 34 mph 1000.1mb 52f 47f
Fri 10/17 11:50pm 6ft 5s 5s 29 34 mph 999.4mb 52f 47f
10:50pm 4.5ft 5s 4s 27 31 mph 998.9mb 52f 49f
9:50pm 3.5ft 4s 4s 25 29 mph 998.5mb 52f 49f
8:50pm 3ft 4s 4s 20 22 mph 997.9mb 52f 52f
7:50pm 3ft 4s 4s 20 25 mph 997.2mb 53f 53f
6:50pm 2.5ft 5s 4s 18 22 mph 996.7mb 53f 55f
5:50pm 2.5ft 5s 4s 16 18 mph 996mb 53f 56f
4:50pm 2.5ft 5s 4s 11 13 mph 995.7mb 53f 55f
3:50pm 2.5ft 5s 4s 9
mph
995.7mb 53f 55f
2:50pm 2.5ft 5s 4s 9 11 mph 996mb 53f 54f
1:50pm 2.5ft 5s 4s 11 13 mph 996mb 53f 55f
12:50pm 2.5ft 5s 4s 11
mph
996.4mb 52f 55f
11:50am 2.5ft 4s 4s 13 16 mph 997mb 52f 54f
10:50am 2ft 4s 3s 16
mph
997.2mb 52f 54f
9:50am 2.5ft 4s 4s 16 18 mph 997.6mb 52f 54f
8:50am 2.5ft 4s 4s 13 18 mph 998.4mb 53f 54f
7:50am 2.5ft 4s 3s 9 13 mph 998.9mb 53f 54f
6:50am 2.5ft 4s 4s 13 16 mph 999.1mb 53f 53f
5:50am 3.5ft 4s 4s 16 18 mph 999mb 53f 54f
4:50am 2.5ft 4s 3s 18 22 mph 998.9mb 53f 53f
3:50am 2.5ft 4s 3s 18 22 mph 999.3mb 53f 53f
2:50am 2.5ft 4s 3s 16 20 mph 1000.1mb 53f 53f
1:50am 1.3ft 3s 3s 18 22 mph 1000.8mb 53f 54f